Terminal Aerodrome Forecast
Issued by NWS

Home | Current Version | Previous Version | Text Only | Print | Product List | Glossary On
Versions: 1 2 3 4 5 6 7 8 9 10 11 12 13
083
FTUS42 KMHX 121127
TAFPGV
TAF
KPGV 121127Z 1212/1312 05005KT P6SM OVC100
     FM121600 07005KT 4SM -SN OVC020
     FM121800 07005KT 2SM -SNPL BR OVC009
     FM122100 02005KT 3SM BR OVC007
     FM130400 29004KT P6SM SCT010
      AMD LTD TO CLD VIS AND WIND=

USA.gov is the U.S. government's official web portal to all federal, state and local government web resources and services.